sensor_id;sensor_type;location;lat;lon;timestamp;P1;durP1;ratioP1;P2;durP2;ratioP2
359;SDS011;168;48.872;9.226;2023-03-23T00:01:56;2.07;;;1.87;;
359;SDS011;168;48.872;9.226;2023-03-23T00:04:26;3.07;;;2.47;;
359;SDS011;168;48.872;9.226;2023-03-23T00:06:55;3.67;;;2.30;;
359;SDS011;168;48.872;9.226;2023-03-23T00:09:27;2.30;;;2.13;;
359;SDS011;168;48.872;9.226;2023-03-23T00:11:57;2.47;;;2.27;;
359;SDS011;168;48.872;9.226;2023-03-23T00:14:33;2.10;;;2.00;;
359;SDS011;168;48.872;9.226;2023-03-23T00:20:46;1.53;;;1.50;;
359;SDS011;168;48.872;9.226;2023-03-23T00:23:15;1.67;;;1.57;;
359;SDS011;168;48.872;9.226;2023-03-23T00:25:51;1.77;;;1.67;;
359;SDS011;168;48.872;9.226;2023-03-23T00:28:23;1.70;;;1.60;;
359;SDS011;168;48.872;9.226;2023-03-23T00:30:56;1.73;;;1.63;;
359;SDS011;168;48.872;9.226;2023-03-23T00:33:24;1.63;;;1.30;;
359;SDS011;168;48.872;9.226;2023-03-23T00:35:53;1.40;;;1.30;;
359;SDS011;168;48.872;9.226;2023-03-23T00:38:22;1.30;;;1.20;;
359;SDS011;168;48.872;9.226;2023-03-23T00:40:54;1.70;;;1.60;;
359;SDS011;168;48.872;9.226;2023-03-23T00:43:29;3.77;;;1.53;;
359;SDS011;168;48.872;9.226;2023-03-23T00:46:25;1.73;;;1.63;;
359;SDS011;168;48.872;9.226;2023-03-23T00:49:13;1.50;;;1.40;;
359;SDS011;168;48.872;9.226;2023-03-23T00:55:02;1.60;;;1.50;;
359;SDS011;168;48.872;9.226;2023-03-23T00:57:32;2.50;;;1.97;;
359;SDS011;168;48.872;9.226;2023-03-23T01:00:00;1.40;;;1.30;;
359;SDS011;168;48.872;9.226;2023-03-23T01:05:32;1.50;;;1.40;;
359;SDS011;168;48.872;9.226;2023-03-23T01:08:18;1.70;;;1.30;;
359;SDS011;168;48.872;9.226;2023-03-23T01:10:46;1.90;;;1.67;;
359;SDS011;168;48.872;9.226;2023-03-23T01:13:16;2.00;;;1.80;;
359;SDS011;168;48.872;9.226;2023-03-23T01:15:44;1.67;;;1.53;;
359;SDS011;168;48.872;9.226;2023-03-23T01:18:13;1.90;;;1.80;;
359;SDS011;168;48.872;9.226;2023-03-23T01:20:40;2.43;;;2.27;;
359;SDS011;168;48.872;9.226;2023-03-23T01:23:08;2.73;;;2.27;;
359;SDS011;168;48.872;9.226;2023-03-23T01:25:38;3.10;;;2.80;;
359;SDS011;168;48.872;9.226;2023-03-23T01:28:17;2.70;;;2.50;;
359;SDS011;168;48.872;9.226;2023-03-23T01:31:13;3.00;;;2.70;;
359;SDS011;168;48.872;9.226;2023-03-23T01:33:53;2.90;;;2.60;;
359;SDS011;168;48.872;9.226;2023-03-23T01:36:41;3.73;;;3.10;;
359;SDS011;168;48.872;9.226;2023-03-23T01:39:37;2.87;;;2.43;;
359;SDS011;168;48.872;9.226;2023-03-23T01:45:48;3.07;;;2.77;;
359;SDS011;168;48.872;9.226;2023-03-23T01:48:18;3.30;;;3.00;;
359;SDS011;168;48.872;9.226;2023-03-23T01:51:01;3.83;;;3.50;;
359;SDS011;168;48.872;9.226;2023-03-23T01:54:15;2.77;;;2.57;;
359;SDS011;168;48.872;9.226;2023-03-23T01:57:14;3.10;;;2.77;;
359;SDS011;168;48.872;9.226;2023-03-23T02:00:06;3.87;;;3.17;;
359;SDS011;168;48.872;9.226;2023-03-23T02:02:43;3.70;;;3.27;;
359;SDS011;168;48.872;9.226;2023-03-23T02:05:17;3.67;;;3.37;;
359;SDS011;168;48.872;9.226;2023-03-23T02:07:49;3.87;;;3.57;;
359;SDS011;168;48.872;9.226;2023-03-23T02:10:19;4.13;;;3.10;;
359;SDS011;168;48.872;9.226;2023-03-23T02:12:46;3.50;;;3.03;;
359;SDS011;168;48.872;9.226;2023-03-23T02:15:14;2.73;;;2.53;;
359;SDS011;168;48.872;9.226;2023-03-23T02:17:59;4.33;;;3.20;;
359;SDS011;168;48.872;9.226;2023-03-23T02:20:38;3.80;;;3.50;;
359;SDS011;168;48.872;9.226;2023-03-23T02:26:40;4.30;;;3.07;;
359;SDS011;168;48.872;9.226;2023-03-23T02:32:22;3.50;;;3.20;;
359;SDS011;168;48.872;9.226;2023-03-23T02:35:12;3.70;;;3.10;;
359;SDS011;168;48.872;9.226;2023-03-23T02:37:55;3.40;;;2.93;;
359;SDS011;168;48.872;9.226;2023-03-23T02:40:30;3.83;;;3.53;;
359;SDS011;168;48.872;9.226;2023-03-23T02:43:22;4.13;;;3.77;;
359;SDS011;168;48.872;9.226;2023-03-23T02:45:58;4.67;;;3.00;;
359;SDS011;168;48.872;9.226;2023-03-23T02:48:45;3.57;;;3.20;;
359;SDS011;168;48.872;9.226;2023-03-23T02:51:19;3.43;;;3.13;;
359;SDS011;168;48.872;9.226;2023-03-23T02:53:53;3.23;;;3.00;;
359;SDS011;168;48.872;9.226;2023-03-23T02:56:23;3.10;;;2.87;;
359;SDS011;168;48.872;9.226;2023-03-23T02:58:54;3.03;;;2.80;;
359;SDS011;168;48.872;9.226;2023-03-23T03:04:37;2.83;;;2.63;;
359;SDS011;168;48.872;9.226;2023-03-23T03:07:13;3.60;;;3.30;;
359;SDS011;168;48.872;9.226;2023-03-23T03:09:58;4.07;;;2.90;;
359;SDS011;168;48.872;9.226;2023-03-23T03:12:34;5.17;;;3.60;;
359;SDS011;168;48.872;9.226;2023-03-23T03:15:10;3.13;;;2.93;;
359;SDS011;168;48.872;9.226;2023-03-23T03:17:48;4.40;;;3.20;;
359;SDS011;168;48.872;9.226;2023-03-23T03:20:24;4.37;;;3.07;;
359;SDS011;168;48.872;9.226;2023-03-23T03:23:16;2.80;;;2.60;;
359;SDS011;168;48.872;9.226;2023-03-23T03:28:43;4.10;;;3.63;;
359;SDS011;168;48.872;9.226;2023-03-23T03:31:34;4.70;;;3.17;;
359;SDS011;168;48.872;9.226;2023-03-23T03:34:10;4.60;;;3.83;;
359;SDS011;168;48.872;9.226;2023-03-23T03:36:43;4.60;;;4.20;;
359;SDS011;168;48.872;9.226;2023-03-23T03:39:14;4.57;;;4.10;;
359;SDS011;168;48.872;9.226;2023-03-23T03:41:43;4.30;;;3.90;;
359;SDS011;168;48.872;9.226;2023-03-23T03:44:11;4.63;;;3.90;;
359;SDS011;168;48.872;9.226;2023-03-23T03:46:38;5.53;;;4.57;;
359;SDS011;168;48.872;9.226;2023-03-23T03:49:07;4.23;;;3.93;;
359;SDS011;168;48.872;9.226;2023-03-23T03:52:00;3.80;;;3.37;;
359;SDS011;168;48.872;9.226;2023-03-23T03:54:35;4.63;;;4.03;;
359;SDS011;168;48.872;9.226;2023-03-23T03:57:08;4.77;;;4.27;;
359;SDS011;168;48.872;9.226;2023-03-23T03:59:37;4.27;;;3.97;;
359;SDS011;168;48.872;9.226;2023-03-23T04:02:11;4.87;;;3.43;;
359;SDS011;168;48.872;9.226;2023-03-23T04:04:40;4.10;;;3.53;;
359;SDS011;168;48.872;9.226;2023-03-23T04:07:09;9.03;;;4.60;;
359;SDS011;168;48.872;9.226;2023-03-23T04:09:48;4.17;;;3.70;;
359;SDS011;168;48.872;9.226;2023-03-23T04:12:16;5.60;;;3.67;;
359;SDS011;168;48.872;9.226;2023-03-23T04:14:46;4.30;;;3.90;;
359;SDS011;168;48.872;9.226;2023-03-23T04:17:14;3.73;;;3.40;;
359;SDS011;168;48.872;9.226;2023-03-23T04:19:42;3.30;;;3.10;;
359;SDS011;168;48.872;9.226;2023-03-23T04:22:13;4.23;;;3.30;;
359;SDS011;168;48.872;9.226;2023-03-23T04:24:41;3.00;;;2.80;;
359;SDS011;168;48.872;9.226;2023-03-23T04:27:10;2.83;;;2.50;;
359;SDS011;168;48.872;9.226;2023-03-23T04:29:38;5.30;;;3.40;;
359;SDS011;168;48.872;9.226;2023-03-23T04:32:07;3.53;;;3.23;;
359;SDS011;168;48.872;9.226;2023-03-23T04:34:35;4.20;;;2.80;;
359;SDS011;168;48.872;9.226;2023-03-23T04:37:04;4.07;;;2.97;;
359;SDS011;168;48.872;9.226;2023-03-23T04:39:34;3.10;;;2.80;;
359;SDS011;168;48.872;9.226;2023-03-23T04:42:05;3.10;;;2.90;;
359;SDS011;168;48.872;9.226;2023-03-23T04:48:29;3.40;;;2.83;;
359;SDS011;168;48.872;9.226;2023-03-23T04:51:00;3.13;;;2.83;;
359;SDS011;168;48.872;9.226;2023-03-23T04:53:29;3.50;;;3.20;;
359;SDS011;168;48.872;9.226;2023-03-23T04:55:59;3.80;;;3.50;;
359;SDS011;168;48.872;9.226;2023-03-23T04:58:27;3.93;;;2.70;;
359;SDS011;168;48.872;9.226;2023-03-23T05:00:59;3.43;;;3.13;;
359;SDS011;168;48.872;9.226;2023-03-23T05:03:28;3.17;;;2.97;;
359;SDS011;168;48.872;9.226;2023-03-23T05:05:56;3.30;;;3.00;;
359;SDS011;168;48.872;9.226;2023-03-23T05:08:23;3.33;;;2.90;;
359;SDS011;168;48.872;9.226;2023-03-23T05:10:51;3.20;;;2.90;;
359;SDS011;168;48.872;9.226;2023-03-23T05:13:20;3.90;;;3.00;;
359;SDS011;168;48.872;9.226;2023-03-23T05:15:47;3.33;;;3.00;;
359;SDS011;168;48.872;9.226;2023-03-23T05:18:15;2.50;;;2.30;;
359;SDS011;168;48.872;9.226;2023-03-23T05:20:44;2.67;;;2.47;;
359;SDS011;168;48.872;9.226;2023-03-23T05:23:12;3.73;;;3.07;;
359;SDS011;168;48.872;9.226;2023-03-23T05:25:40;2.80;;;2.60;;
359;SDS011;168;48.872;9.226;2023-03-23T05:28:07;2.63;;;2.43;;
359;SDS011;168;48.872;9.226;2023-03-23T05:30:36;4.00;;;3.10;;
359;SDS011;168;48.872;9.226;2023-03-23T05:33:04;3.10;;;2.80;;
359;SDS011;168;48.872;9.226;2023-03-23T05:35:31;4.33;;;3.10;;
359;SDS011;168;48.872;9.226;2023-03-23T05:38:01;3.70;;;2.73;;
359;SDS011;168;48.872;9.226;2023-03-23T05:40:30;3.17;;;2.70;;
359;SDS011;168;48.872;9.226;2023-03-23T05:43:12;3.80;;;3.50;;
359;SDS011;168;48.872;9.226;2023-03-23T05:45:50;3.00;;;2.70;;
359;SDS011;168;48.872;9.226;2023-03-23T05:48:17;3.43;;;2.73;;
359;SDS011;168;48.872;9.226;2023-03-23T05:50:45;3.10;;;2.80;;
359;SDS011;168;48.872;9.226;2023-03-23T05:56:21;3.43;;;2.77;;
359;SDS011;168;48.872;9.226;2023-03-23T05:58:51;3.10;;;2.80;;
359;SDS011;168;48.872;9.226;2023-03-23T06:01:20;2.63;;;2.43;;
359;SDS011;168;48.872;9.226;2023-03-23T06:03:49;3.07;;;2.80;;
359;SDS011;168;48.872;9.226;2023-03-23T06:06:19;3.77;;;2.70;;
359;SDS011;168;48.872;9.226;2023-03-23T06:08:46;2.97;;;2.50;;
359;SDS011;168;48.872;9.226;2023-03-23T06:11:17;3.00;;;2.43;;
359;SDS011;168;48.872;9.226;2023-03-23T06:13:45;3.60;;;2.60;;
359;SDS011;168;48.872;9.226;2023-03-23T06:16:13;2.40;;;2.20;;
359;SDS011;168;48.872;9.226;2023-03-23T06:18:41;2.50;;;2.30;;
359;SDS011;168;48.872;9.226;2023-03-23T06:21:08;4.10;;;2.23;;
359;SDS011;168;48.872;9.226;2023-03-23T06:23:36;2.23;;;2.03;;
359;SDS011;168;48.872;9.226;2023-03-23T06:26:04;2.50;;;2.00;;
359;SDS011;168;48.872;9.226;2023-03-23T06:28:35;2.13;;;1.97;;
359;SDS011;168;48.872;9.226;2023-03-23T06:31:02;2.00;;;1.90;;
359;SDS011;168;48.872;9.226;2023-03-23T06:33:31;2.77;;;2.07;;
359;SDS011;168;48.872;9.226;2023-03-23T06:36:01;1.90;;;1.80;;
359;SDS011;168;48.872;9.226;2023-03-23T06:38:29;2.30;;;1.93;;
359;SDS011;168;48.872;9.226;2023-03-23T06:40:57;2.30;;;2.03;;
359;SDS011;168;48.872;9.226;2023-03-23T06:43:25;2.00;;;1.90;;
359;SDS011;168;48.872;9.226;2023-03-23T06:45:53;2.50;;;2.00;;
359;SDS011;168;48.872;9.226;2023-03-23T06:48:21;2.90;;;1.90;;
359;SDS011;168;48.872;9.226;2023-03-23T06:50:48;2.17;;;1.97;;
359;SDS011;168;48.872;9.226;2023-03-23T06:53:16;2.70;;;2.23;;
359;SDS011;168;48.872;9.226;2023-03-23T06:55:45;2.60;;;2.40;;
359;SDS011;168;48.872;9.226;2023-03-23T06:58:13;3.37;;;2.50;;
359;SDS011;168;48.872;9.226;2023-03-23T07:00:40;2.10;;;2.00;;
359;SDS011;168;48.872;9.226;2023-03-23T07:03:09;1.70;;;1.60;;
359;SDS011;168;48.872;9.226;2023-03-23T07:05:37;2.07;;;1.70;;
359;SDS011;168;48.872;9.226;2023-03-23T07:08:04;2.50;;;2.30;;
359;SDS011;168;48.872;9.226;2023-03-23T07:10:32;2.43;;;2.33;;
359;SDS011;168;48.872;9.226;2023-03-23T07:12:59;3.77;;;2.77;;
359;SDS011;168;48.872;9.226;2023-03-23T07:15:27;2.37;;;2.17;;
359;SDS011;168;48.872;9.226;2023-03-23T07:17:55;2.50;;;2.30;;
359;SDS011;168;48.872;9.226;2023-03-23T07:20:24;2.70;;;2.53;;
359;SDS011;168;48.872;9.226;2023-03-23T07:22:53;2.90;;;2.03;;
359;SDS011;168;48.872;9.226;2023-03-23T07:25:20;3.30;;;2.10;;
359;SDS011;168;48.872;9.226;2023-03-23T07:27:48;4.73;;;2.57;;
359;SDS011;168;48.872;9.226;2023-03-23T07:30:15;3.30;;;2.60;;
359;SDS011;168;48.872;9.226;2023-03-23T07:32:43;2.20;;;2.00;;
359;SDS011;168;48.872;9.226;2023-03-23T07:35:10;3.93;;;2.47;;
359;SDS011;168;48.872;9.226;2023-03-23T07:37:39;2.50;;;2.30;;
359;SDS011;168;48.872;9.226;2023-03-23T07:40:07;2.50;;;2.30;;
359;SDS011;168;48.872;9.226;2023-03-23T07:42:36;2.83;;;2.50;;
359;SDS011;168;48.872;9.226;2023-03-23T07:45:04;3.00;;;2.50;;
359;SDS011;168;48.872;9.226;2023-03-23T07:47:32;2.53;;;1.87;;
359;SDS011;168;48.872;9.226;2023-03-23T07:49:59;2.43;;;2.13;;
359;SDS011;168;48.872;9.226;2023-03-23T07:52:27;2.33;;;2.13;;
359;SDS011;168;48.872;9.226;2023-03-23T07:54:57;2.80;;;2.50;;
359;SDS011;168;48.872;9.226;2023-03-23T07:57:24;2.23;;;2.00;;
359;SDS011;168;48.872;9.226;2023-03-23T07:59:51;3.03;;;2.80;;
359;SDS011;168;48.872;9.226;2023-03-23T08:02:19;10.90;;;2.93;;
359;SDS011;168;48.872;9.226;2023-03-23T08:04:46;2.40;;;2.20;;
359;SDS011;168;48.872;9.226;2023-03-23T08:07:15;2.80;;;2.57;;
359;SDS011;168;48.872;9.226;2023-03-23T08:09:45;2.40;;;2.23;;
359;SDS011;168;48.872;9.226;2023-03-23T08:12:15;3.40;;;2.00;;
359;SDS011;168;48.872;9.226;2023-03-23T08:14:43;2.60;;;2.40;;
359;SDS011;168;48.872;9.226;2023-03-23T08:17:10;2.80;;;2.60;;
359;SDS011;168;48.872;9.226;2023-03-23T08:19:38;2.50;;;2.30;;
359;SDS011;168;48.872;9.226;2023-03-23T08:22:05;3.43;;;2.53;;
359;SDS011;168;48.872;9.226;2023-03-23T08:24:33;4.73;;;2.70;;
359;SDS011;168;48.872;9.226;2023-03-23T08:27:00;2.40;;;2.20;;
359;SDS011;168;48.872;9.226;2023-03-23T08:29:29;5.70;;;2.60;;
359;SDS011;168;48.872;9.226;2023-03-23T08:31:58;3.63;;;2.50;;
359;SDS011;168;48.872;9.226;2023-03-23T08:34:28;2.50;;;2.30;;
359;SDS011;168;48.872;9.226;2023-03-23T08:36:56;3.57;;;2.70;;
359;SDS011;168;48.872;9.226;2023-03-23T08:39:23;2.40;;;2.23;;
359;SDS011;168;48.872;9.226;2023-03-23T08:41:51;6.20;;;2.83;;
359;SDS011;168;48.872;9.226;2023-03-23T08:44:18;2.47;;;2.27;;
359;SDS011;168;48.872;9.226;2023-03-23T08:46:47;3.03;;;2.67;;
359;SDS011;168;48.872;9.226;2023-03-23T08:49:15;2.63;;;2.43;;
359;SDS011;168;48.872;9.226;2023-03-23T08:51:42;3.20;;;2.43;;
359;SDS011;168;48.872;9.226;2023-03-23T08:54:10;3.33;;;2.53;;
359;SDS011;168;48.872;9.226;2023-03-23T08:56:37;4.73;;;2.67;;
359;SDS011;168;48.872;9.226;2023-03-23T08:59:05;2.30;;;2.10;;
359;SDS011;168;48.872;9.226;2023-03-23T09:01:32;3.00;;;2.57;;
359;SDS011;168;48.872;9.226;2023-03-23T09:04:01;2.47;;;2.27;;
359;SDS011;168;48.872;9.226;2023-03-23T09:06:29;3.60;;;2.57;;
359;SDS011;168;48.872;9.226;2023-03-23T09:08:58;3.00;;;2.33;;
359;SDS011;168;48.872;9.226;2023-03-23T09:11:32;3.20;;;2.40;;
359;SDS011;168;48.872;9.226;2023-03-23T09:14:00;2.40;;;2.20;;
359;SDS011;168;48.872;9.226;2023-03-23T09:16:28;2.60;;;2.40;;
359;SDS011;168;48.872;9.226;2023-03-23T09:18:55;2.60;;;2.40;;
359;SDS011;168;48.872;9.226;2023-03-23T09:21:25;2.50;;;2.30;;
359;SDS011;168;48.872;9.226;2023-03-23T09:23:53;2.50;;;2.30;;
359;SDS011;168;48.872;9.226;2023-03-23T09:26:23;2.60;;;2.40;;
359;SDS011;168;48.872;9.226;2023-03-23T09:28:51;2.50;;;2.30;;
359;SDS011;168;48.872;9.226;2023-03-23T09:31:19;2.30;;;2.10;;
359;SDS011;168;48.872;9.226;2023-03-23T09:33:47;2.90;;;2.43;;
359;SDS011;168;48.872;9.226;2023-03-23T09:36:17;2.43;;;2.33;;
359;SDS011;168;48.872;9.226;2023-03-23T09:38:48;2.63;;;2.43;;
359;SDS011;168;48.872;9.226;2023-03-23T09:41:27;3.30;;;2.50;;
359;SDS011;168;48.872;9.226;2023-03-23T09:44:07;4.57;;;2.17;;
359;SDS011;168;48.872;9.226;2023-03-23T09:46:44;2.53;;;2.33;;
359;SDS011;168;48.872;9.226;2023-03-23T09:49:20;2.50;;;2.33;;
359;SDS011;168;48.872;9.226;2023-03-23T09:51:51;2.70;;;2.50;;
359;SDS011;168;48.872;9.226;2023-03-23T09:54:24;2.47;;;2.20;;
359;SDS011;168;48.872;9.226;2023-03-23T09:56:54;2.80;;;2.30;;
359;SDS011;168;48.872;9.226;2023-03-23T09:59:24;2.70;;;2.50;;
359;SDS011;168;48.872;9.226;2023-03-23T10:01:57;3.07;;;2.30;;
359;SDS011;168;48.872;9.226;2023-03-23T10:04:39;5.90;;;2.23;;
359;SDS011;168;48.872;9.226;2023-03-23T10:07:12;3.40;;;2.58;;
359;SDS011;168;48.872;9.226;2023-03-23T10:09:43;2.70;;;2.50;;
359;SDS011;168;48.872;9.226;2023-03-23T10:12:23;3.93;;;2.10;;
359;SDS011;168;48.872;9.226;2023-03-23T10:15:01;3.00;;;2.53;;
359;SDS011;168;48.872;9.226;2023-03-23T10:17:37;2.57;;;2.00;;
359;SDS011;168;48.872;9.226;2023-03-23T10:20:18;2.30;;;1.97;;
359;SDS011;168;48.872;9.226;2023-03-23T10:22:51;2.13;;;1.80;;
359;SDS011;168;48.872;9.226;2023-03-23T10:25:26;2.07;;;1.90;;
359;SDS011;168;48.872;9.226;2023-03-23T10:27:59;3.43;;;2.20;;
359;SDS011;168;48.872;9.226;2023-03-23T10:30:31;3.40;;;2.00;;
359;SDS011;168;48.872;9.226;2023-03-23T10:33:01;2.63;;;2.43;;
359;SDS011;168;48.872;9.226;2023-03-23T10:35:32;2.30;;;2.10;;
359;SDS011;168;48.872;9.226;2023-03-23T10:38:03;3.40;;;2.10;;
359;SDS011;168;48.872;9.226;2023-03-23T10:40:43;1.80;;;1.63;;
359;SDS011;168;48.872;9.226;2023-03-23T10:43:13;3.30;;;2.70;;
359;SDS011;168;48.872;9.226;2023-03-23T10:45:41;2.30;;;2.10;;
359;SDS011;168;48.872;9.226;2023-03-23T10:48:13;2.30;;;2.10;;
359;SDS011;168;48.872;9.226;2023-03-23T10:50:45;1.80;;;1.70;;
359;SDS011;168;48.872;9.226;2023-03-23T10:53:19;1.40;;;1.30;;
359;SDS011;168;48.872;9.226;2023-03-23T10:55:50;1.70;;;1.60;;
359;SDS011;168;48.872;9.226;2023-03-23T10:58:22;1.70;;;1.60;;
359;SDS011;168;48.872;9.226;2023-03-23T11:00:51;2.27;;;1.90;;
359;SDS011;168;48.872;9.226;2023-03-23T11:03:23;2.23;;;1.80;;
359;SDS011;168;48.872;9.226;2023-03-23T11:05:55;1.63;;;1.53;;
359;SDS011;168;48.872;9.226;2023-03-23T11:08:25;2.33;;;1.67;;
359;SDS011;168;48.872;9.226;2023-03-23T11:10:58;1.87;;;1.77;;
359;SDS011;168;48.872;9.226;2023-03-23T11:13:38;2.40;;;2.10;;
359;SDS011;168;48.872;9.226;2023-03-23T11:16:09;3.23;;;1.60;;
359;SDS011;168;48.872;9.226;2023-03-23T11:18:38;1.90;;;1.77;;
359;SDS011;168;48.872;9.226;2023-03-23T11:21:06;1.83;;;1.73;;
359;SDS011;168;48.872;9.226;2023-03-23T11:23:36;1.90;;;1.80;;
359;SDS011;168;48.872;9.226;2023-03-23T11:26:13;2.03;;;1.83;;
359;SDS011;168;48.872;9.226;2023-03-23T11:28:43;1.57;;;1.47;;
359;SDS011;168;48.872;9.226;2023-03-23T11:31:15;2.30;;;2.10;;
359;SDS011;168;48.872;9.226;2023-03-23T11:33:47;2.10;;;2.00;;
359;SDS011;168;48.872;9.226;2023-03-23T11:36:19;1.73;;;1.63;;
359;SDS011;168;48.872;9.226;2023-03-23T11:38:52;2.30;;;1.83;;
359;SDS011;168;48.872;9.226;2023-03-23T11:41:24;2.60;;;1.83;;
359;SDS011;168;48.872;9.226;2023-03-23T11:44:03;2.10;;;2.00;;
359;SDS011;168;48.872;9.226;2023-03-23T11:46:39;1.83;;;1.73;;
359;SDS011;168;48.872;9.226;2023-03-23T11:49:17;2.13;;;1.77;;
359;SDS011;168;48.872;9.226;2023-03-23T11:51:52;4.20;;;1.90;;
359;SDS011;168;48.872;9.226;2023-03-23T11:54:25;2.50;;;2.03;;
359;SDS011;168;48.872;9.226;2023-03-23T11:56:58;2.90;;;2.40;;
359;SDS011;168;48.872;9.226;2023-03-23T11:59:27;2.57;;;2.10;;
359;SDS011;168;48.872;9.226;2023-03-23T12:02:00;2.60;;;2.40;;
359;SDS011;168;48.872;9.226;2023-03-23T12:04:47;2.17;;;1.90;;
359;SDS011;168;48.872;9.226;2023-03-23T12:07:40;2.47;;;1.90;;
359;SDS011;168;48.872;9.226;2023-03-23T12:10:22;2.30;;;1.90;;
359;SDS011;168;48.872;9.226;2023-03-23T12:13:01;2.23;;;2.13;;
359;SDS011;168;48.872;9.226;2023-03-23T12:15:38;3.80;;;3.50;;
359;SDS011;168;48.872;9.226;2023-03-23T12:18:16;2.40;;;2.20;;
359;SDS011;168;48.872;9.226;2023-03-23T12:20:57;2.80;;;2.60;;
359;SDS011;168;48.872;9.226;2023-03-23T12:23:31;2.57;;;2.33;;
359;SDS011;168;48.872;9.226;2023-03-23T12:26:21;2.17;;;1.97;;
359;SDS011;168;48.872;9.226;2023-03-23T12:28:59;4.30;;;2.30;;
359;SDS011;168;48.872;9.226;2023-03-23T12:31:39;2.30;;;2.10;;
359;SDS011;168;48.872;9.226;2023-03-23T12:34:16;2.00;;;1.90;;
359;SDS011;168;48.872;9.226;2023-03-23T12:36:53;2.57;;;2.27;;
359;SDS011;168;48.872;9.226;2023-03-23T12:39:52;2.60;;;2.40;;
359;SDS011;168;48.872;9.226;2023-03-23T12:42:43;2.57;;;1.83;;
359;SDS011;168;48.872;9.226;2023-03-23T12:45:21;3.50;;;2.47;;
359;SDS011;168;48.872;9.226;2023-03-23T12:47:54;2.90;;;2.43;;
359;SDS011;168;48.872;9.226;2023-03-23T12:50:27;2.30;;;2.10;;
359;SDS011;168;48.872;9.226;2023-03-23T12:53:01;2.80;;;2.60;;
359;SDS011;168;48.872;9.226;2023-03-23T12:55:34;2.37;;;2.17;;
359;SDS011;168;48.872;9.226;2023-03-23T12:58:08;2.60;;;2.40;;
359;SDS011;168;48.872;9.226;2023-03-23T13:00:51;4.17;;;2.43;;
359;SDS011;168;48.872;9.226;2023-03-23T13:03:23;2.87;;;2.30;;
359;SDS011;168;48.872;9.226;2023-03-23T13:05:58;2.43;;;2.23;;
359;SDS011;168;48.872;9.226;2023-03-23T13:08:32;3.20;;;2.30;;
359;SDS011;168;48.872;9.226;2023-03-23T13:11:04;3.20;;;2.63;;
359;SDS011;168;48.872;9.226;2023-03-23T13:13:41;2.80;;;2.60;;
359;SDS011;168;48.872;9.226;2023-03-23T13:16:19;4.20;;;2.60;;
359;SDS011;168;48.872;9.226;2023-03-23T13:18:58;2.90;;;2.63;;
359;SDS011;168;48.872;9.226;2023-03-23T13:21:34;3.00;;;2.80;;
359;SDS011;168;48.872;9.226;2023-03-23T13:24:09;3.10;;;2.57;;
359;SDS011;168;48.872;9.226;2023-03-23T13:26:40;3.20;;;2.70;;
359;SDS011;168;48.872;9.226;2023-03-23T13:29:10;2.40;;;2.20;;
359;SDS011;168;48.872;9.226;2023-03-23T13:31:41;2.07;;;1.97;;
359;SDS011;168;48.872;9.226;2023-03-23T13:34:13;5.30;;;2.20;;
359;SDS011;168;48.872;9.226;2023-03-23T13:36:44;3.63;;;2.60;;
359;SDS011;168;48.872;9.226;2023-03-23T13:39:20;2.87;;;2.67;;
359;SDS011;168;48.872;9.226;2023-03-23T13:41:59;3.93;;;2.70;;
359;SDS011;168;48.872;9.226;2023-03-23T13:44:40;2.50;;;2.30;;
359;SDS011;168;48.872;9.226;2023-03-23T13:47:21;2.27;;;2.00;;
359;SDS011;168;48.872;9.226;2023-03-23T13:49:53;2.30;;;2.20;;
359;SDS011;168;48.872;9.226;2023-03-23T13:52:24;2.60;;;2.40;;
359;SDS011;168;48.872;9.226;2023-03-23T13:55:17;4.83;;;2.80;;
359;SDS011;168;48.872;9.226;2023-03-23T13:57:57;2.73;;;2.40;;
359;SDS011;168;48.872;9.226;2023-03-23T14:00:45;2.60;;;2.40;;
359;SDS011;168;48.872;9.226;2023-03-23T14:03:16;2.47;;;2.27;;
359;SDS011;168;48.872;9.226;2023-03-23T14:05:51;3.93;;;2.83;;
359;SDS011;168;48.872;9.226;2023-03-23T14:08:36;2.57;;;2.37;;
359;SDS011;168;48.872;9.226;2023-03-23T14:11:12;2.70;;;2.50;;
359;SDS011;168;48.872;9.226;2023-03-23T14:13:44;2.60;;;2.40;;
359;SDS011;168;48.872;9.226;2023-03-23T14:16:15;3.20;;;2.57;;
359;SDS011;168;48.872;9.226;2023-03-23T14:18:49;3.60;;;3.30;;
359;SDS011;168;48.872;9.226;2023-03-23T14:21:31;4.60;;;3.00;;
359;SDS011;168;48.872;9.226;2023-03-23T14:24:01;3.57;;;3.27;;
359;SDS011;168;48.872;9.226;2023-03-23T14:26:33;3.23;;;2.93;;
359;SDS011;168;48.872;9.226;2023-03-23T14:29:01;3.60;;;3.30;;
359;SDS011;168;48.872;9.226;2023-03-23T14:31:30;3.23;;;3.00;;
359;SDS011;168;48.872;9.226;2023-03-23T14:34:01;3.30;;;3.00;;
359;SDS011;168;48.872;9.226;2023-03-23T14:36:30;3.87;;;3.10;;
359;SDS011;168;48.872;9.226;2023-03-23T14:39:00;3.00;;;2.80;;
359;SDS011;168;48.872;9.226;2023-03-23T14:41:31;3.57;;;3.27;;
359;SDS011;168;48.872;9.226;2023-03-23T14:44:00;3.10;;;2.83;;
359;SDS011;168;48.872;9.226;2023-03-23T14:46:29;4.23;;;3.83;;
359;SDS011;168;48.872;9.226;2023-03-23T14:49:00;3.77;;;2.67;;
359;SDS011;168;48.872;9.226;2023-03-23T14:51:30;3.57;;;3.27;;
359;SDS011;168;48.872;9.226;2023-03-23T14:53:57;3.90;;;3.50;;
359;SDS011;168;48.872;9.226;2023-03-23T14:56:31;2.87;;;2.63;;
359;SDS011;168;48.872;9.226;2023-03-23T14:59:03;2.93;;;2.73;;
359;SDS011;168;48.872;9.226;2023-03-23T15:01:32;3.17;;;2.90;;
359;SDS011;168;48.872;9.226;2023-03-23T15:04:04;3.30;;;3.00;;
359;SDS011;168;48.872;9.226;2023-03-23T15:06:36;3.10;;;2.90;;
359;SDS011;168;48.872;9.226;2023-03-23T15:09:07;4.40;;;3.43;;
359;SDS011;168;48.872;9.226;2023-03-23T15:11:38;5.50;;;3.37;;
359;SDS011;168;48.872;9.226;2023-03-23T15:14:08;3.33;;;3.03;;
359;SDS011;168;48.872;9.226;2023-03-23T15:16:40;3.60;;;3.30;;
359;SDS011;168;48.872;9.226;2023-03-23T15:19:15;3.50;;;3.20;;
359;SDS011;168;48.872;9.226;2023-03-23T15:21:49;3.37;;;2.67;;
359;SDS011;168;48.872;9.226;2023-03-23T15:24:27;3.73;;;3.33;;
359;SDS011;168;48.872;9.226;2023-03-23T15:27:03;3.40;;;3.20;;
359;SDS011;168;48.872;9.226;2023-03-23T15:29:48;2.93;;;2.53;;
359;SDS011;168;48.872;9.226;2023-03-23T15:32:21;2.47;;;2.27;;
359;SDS011;168;48.872;9.226;2023-03-23T15:34:51;1.93;;;1.83;;
359;SDS011;168;48.872;9.226;2023-03-23T15:37:20;2.17;;;2.07;;
359;SDS011;168;48.872;9.226;2023-03-23T15:39:51;3.77;;;2.73;;
359;SDS011;168;48.872;9.226;2023-03-23T15:42:20;2.67;;;2.47;;
359;SDS011;168;48.872;9.226;2023-03-23T15:44:57;4.47;;;2.50;;
359;SDS011;168;48.872;9.226;2023-03-23T15:47:34;2.67;;;2.47;;
359;SDS011;168;48.872;9.226;2023-03-23T15:50:08;2.70;;;2.50;;
359;SDS011;168;48.872;9.226;2023-03-23T15:52:39;3.00;;;2.50;;
359;SDS011;168;48.872;9.226;2023-03-23T15:58:07;4.60;;;2.70;;
359;SDS011;168;48.872;9.226;2023-03-23T16:00:36;2.27;;;2.13;;
359;SDS011;168;48.872;9.226;2023-03-23T16:03:05;3.30;;;2.60;;
359;SDS011;168;48.872;9.226;2023-03-23T16:05:36;2.20;;;2.07;;
359;SDS011;168;48.872;9.226;2023-03-23T16:08:04;2.20;;;2.10;;
359;SDS011;168;48.872;9.226;2023-03-23T16:10:34;4.60;;;2.57;;
359;SDS011;168;48.872;9.226;2023-03-23T16:13:01;3.70;;;2.60;;
359;SDS011;168;48.872;9.226;2023-03-23T16:15:30;2.20;;;2.10;;
359;SDS011;168;48.872;9.226;2023-03-23T16:17:57;4.07;;;3.00;;
359;SDS011;168;48.872;9.226;2023-03-23T16:20:27;4.40;;;2.40;;
359;SDS011;168;48.872;9.226;2023-03-23T16:22:58;2.50;;;2.30;;
359;SDS011;168;48.872;9.226;2023-03-23T16:25:25;2.60;;;2.40;;
359;SDS011;168;48.872;9.226;2023-03-23T16:28:32;3.00;;;2.60;;
359;SDS011;168;48.872;9.226;2023-03-23T16:31:23;2.50;;;2.30;;
359;SDS011;168;48.872;9.226;2023-03-23T16:33:50;2.63;;;2.43;;
359;SDS011;168;48.872;9.226;2023-03-23T16:36:18;2.23;;;2.10;;
359;SDS011;168;48.872;9.226;2023-03-23T16:38:46;3.43;;;3.07;;
359;SDS011;168;48.872;9.226;2023-03-23T16:41:15;3.03;;;2.50;;
359;SDS011;168;48.872;9.226;2023-03-23T16:43:42;6.10;;;2.43;;
359;SDS011;168;48.872;9.226;2023-03-23T16:46:10;2.73;;;2.47;;
359;SDS011;168;48.872;9.226;2023-03-23T16:48:38;2.53;;;2.20;;
359;SDS011;168;48.872;9.226;2023-03-23T16:51:06;2.70;;;2.50;;
359;SDS011;168;48.872;9.226;2023-03-23T16:53:33;2.67;;;2.43;;
359;SDS011;168;48.872;9.226;2023-03-23T16:56:02;3.50;;;3.17;;